createdAt,value
2024-01-14T00:00:20.928Z,31.80
2024-01-14T00:02:47.966Z,30.67
2024-01-14T00:05:14.949Z,30.00
2024-01-14T00:07:42.214Z,29.93
2024-01-14T00:10:09.626Z,30.87
2024-01-14T00:12:36.568Z,32.27
2024-01-14T00:15:04.362Z,30.87
2024-01-14T00:17:34.049Z,30.90
2024-01-14T00:20:02.150Z,31.37
2024-01-14T00:22:29.194Z,30.27
2024-01-14T00:24:56.122Z,29.80
2024-01-14T00:27:23.261Z,29.27
2024-01-14T00:29:51.141Z,31.40
2024-01-14T00:32:18.294Z,31.53
2024-01-14T00:34:45.363Z,29.80
2024-01-14T00:37:12.333Z,32.73
2024-01-14T00:39:39.978Z,33.23
2024-01-14T00:42:08.082Z,30.63
2024-01-14T00:44:35.300Z,30.53
2024-01-14T00:47:03.826Z,30.60
2024-01-14T00:49:31.144Z,31.23
2024-01-14T00:51:58.261Z,29.50
2024-01-14T00:54:25.446Z,30.27
2024-01-14T00:56:53.161Z,29.83
2024-01-14T00:59:20.109Z,30.17
2024-01-14T01:01:48.071Z,28.37
2024-01-14T01:04:15.123Z,29.93
2024-01-14T01:06:42.223Z,31.00
2024-01-14T01:09:09.357Z,29.53
2024-01-14T01:11:36.350Z,30.20
2024-01-14T01:14:03.234Z,30.83
2024-01-14T01:16:30.446Z,30.73
2024-01-14T01:18:57.622Z,31.87
2024-01-14T01:21:24.823Z,32.60
2024-01-14T01:23:51.934Z,30.53
2024-01-14T01:26:18.961Z,32.73
2024-01-14T01:28:45.874Z,31.80
2024-01-14T01:31:12.992Z,29.53
2024-01-14T01:33:40.303Z,30.70
2024-01-14T01:36:07.856Z,31.00
2024-01-14T01:38:35.541Z,31.83
2024-01-14T01:41:02.552Z,31.57
2024-01-14T01:43:29.517Z,32.03
2024-01-14T01:45:58.096Z,30.73
2024-01-14T01:48:26.025Z,30.43
2024-01-14T01:50:55.838Z,32.23
2024-01-14T01:53:25.456Z,29.97
2024-01-14T01:55:53.981Z,31.67
2024-01-14T01:58:21.737Z,30.53
2024-01-14T02:00:51.335Z,31.93
2024-01-14T02:03:20.676Z,30.47
2024-01-14T02:05:53.582Z,30.73
2024-01-14T02:08:20.659Z,29.90
2024-01-14T02:10:47.564Z,28.93
2024-01-14T02:13:16.025Z,29.30
2024-01-14T02:15:43.043Z,31.13
2024-01-14T02:18:10.129Z,31.47
2024-01-14T02:20:37.140Z,30.87
2024-01-14T02:23:09.867Z,29.90
2024-01-14T02:25:36.971Z,30.03
2024-01-14T02:28:04.939Z,29.90
2024-01-14T02:30:33.490Z,29.83
2024-01-14T02:33:00.825Z,30.10
2024-01-14T02:35:27.927Z,29.57
2024-01-14T02:37:56.099Z,31.20
2024-01-14T02:40:23.194Z,31.40
2024-01-14T02:42:50.164Z,28.83
2024-01-14T02:45:17.538Z,29.07
2024-01-14T02:47:44.574Z,30.33
2024-01-14T02:50:11.637Z,31.07
2024-01-14T02:52:38.538Z,29.93
2024-01-14T02:55:06.036Z,30.63
2024-01-14T02:57:33.747Z,31.87
2024-01-14T03:00:00.924Z,31.47
2024-01-14T03:02:27.893Z,31.60
2024-01-14T03:04:54.847Z,30.47
2024-01-14T03:07:21.741Z,29.97
2024-01-14T03:09:48.703Z,30.27
2024-01-14T03:12:15.826Z,28.60
2024-01-14T03:14:42.849Z,28.23
2024-01-14T03:17:09.905Z,28.33
2024-01-14T03:19:36.932Z,26.33
2024-01-14T03:22:03.976Z,27.37
2024-01-14T03:24:31.111Z,31.37
2024-01-14T03:26:58.130Z,29.00
2024-01-14T03:29:25.044Z,28.27
2024-01-14T03:31:52.100Z,26.93
2024-01-14T03:34:19.225Z,29.27
2024-01-14T03:36:46.360Z,27.50
2024-01-14T03:39:13.282Z,27.00
2024-01-14T03:41:40.253Z,25.37
2024-01-14T03:44:08.100Z,28.70
2024-01-14T03:46:35.119Z,28.43
2024-01-14T03:49:02.139Z,26.27
2024-01-14T03:51:31.816Z,25.93
2024-01-14T03:53:58.811Z,26.33
2024-01-14T03:56:25.790Z,26.27
2024-01-14T03:58:52.666Z,26.33
2024-01-14T04:01:20.026Z,26.27
2024-01-14T04:03:47.295Z,27.33
2024-01-14T04:06:14.515Z,26.27
2024-01-14T04:08:41.709Z,27.60
2024-01-14T04:11:09.714Z,26.37
2024-01-14T04:13:36.842Z,25.87
2024-01-14T04:16:04.091Z,27.87
2024-01-14T04:18:31.457Z,26.83
2024-01-14T04:20:59.023Z,26.20
2024-01-14T04:23:26.234Z,24.57
2024-01-14T04:25:53.574Z,26.03
2024-01-14T04:28:20.640Z,25.67
2024-01-14T04:30:47.748Z,24.70
2024-01-14T04:33:14.849Z,25.03
2024-01-14T04:35:41.968Z,26.67
2024-01-14T04:38:08.883Z,25.43
2024-01-14T04:40:35.864Z,25.60
2024-01-14T04:43:03.153Z,24.63
2024-01-14T04:45:30.453Z,25.67
2024-01-14T04:47:57.523Z,25.83
2024-01-14T04:50:24.721Z,26.03
2024-01-14T04:52:51.812Z,23.10
2024-01-14T04:55:18.873Z,24.97
2024-01-14T04:57:46.252Z,23.13
2024-01-14T05:00:14.087Z,23.70
2024-01-14T05:02:41.033Z,23.60
2024-01-14T05:05:08.538Z,21.80
2024-01-14T05:07:35.535Z,23.63
2024-01-14T05:10:02.841Z,22.07
2024-01-14T05:12:29.826Z,21.77
2024-01-14T05:14:56.861Z,23.43
2024-01-14T05:17:26.061Z,23.23
2024-01-14T05:19:54.028Z,23.40
2024-01-14T05:22:21.728Z,22.63
2024-01-14T05:24:48.786Z,22.30
2024-01-14T05:27:16.200Z,21.23
2024-01-14T05:29:46.477Z,21.87
2024-01-14T05:32:15.995Z,21.50
2024-01-14T05:34:45.796Z,22.30
2024-01-14T05:37:13.371Z,22.80
2024-01-14T05:39:40.349Z,21.93
2024-01-14T05:42:07.424Z,23.47
2024-01-14T05:44:34.705Z,23.03
2024-01-14T05:47:01.615Z,23.17
2024-01-14T05:49:28.746Z,23.53
2024-01-14T05:51:55.763Z,23.53
2024-01-14T05:54:22.743Z,23.60
2024-01-14T05:56:49.683Z,24.60
2024-01-14T05:59:16.719Z,23.73
2024-01-14T06:01:43.667Z,22.23
2024-01-14T06:04:10.767Z,23.63
2024-01-14T06:06:39.032Z,24.27
2024-01-14T06:09:06.214Z,23.20
2024-01-14T06:11:33.361Z,23.07
2024-01-14T06:14:00.372Z,23.80
2024-01-14T06:16:27.344Z,23.17
2024-01-14T06:18:55.589Z,21.63
2024-01-14T06:21:22.839Z,22.90
2024-01-14T06:23:50.658Z,21.73
2024-01-14T06:26:18.905Z,21.73
2024-01-14T06:28:50.170Z,22.23
2024-01-14T06:31:18.680Z,22.57
2024-01-14T06:33:46.202Z,22.87
2024-01-14T06:36:13.807Z,21.47
2024-01-14T06:38:41.028Z,21.77
2024-01-14T06:41:10.866Z,22.33
2024-01-14T06:43:38.876Z,19.47
2024-01-14T06:46:06.405Z,21.83
2024-01-14T06:48:33.791Z,20.27
2024-01-14T06:51:03.992Z,20.23
2024-01-14T06:53:31.081Z,19.37
2024-01-14T06:55:58.309Z,20.90
2024-01-14T06:58:25.258Z,20.17
2024-01-14T07:00:52.403Z,20.33
2024-01-14T07:03:19.687Z,21.57
2024-01-14T07:05:46.870Z,22.73
2024-01-14T07:08:13.897Z,21.93
2024-01-14T07:10:40.799Z,22.20
2024-01-14T07:13:07.770Z,21.47
2024-01-14T07:15:34.836Z,20.50
2024-01-14T07:18:03.707Z,22.50
2024-01-14T07:20:31.049Z,22.83
2024-01-14T07:23:39.577Z,22.90
2024-01-14T07:25:45.194Z,21.83
2024-01-14T07:28:12.135Z,21.60
2024-01-14T07:30:39.219Z,21.10
2024-01-14T07:33:06.512Z,22.20
2024-01-14T07:35:34.129Z,22.57
2024-01-14T07:38:01.143Z,23.83
2024-01-14T07:40:30.974Z,21.93
2024-01-14T07:42:57.923Z,22.67
2024-01-14T07:45:24.901Z,21.07
2024-01-14T07:47:51.973Z,20.40
2024-01-14T07:50:18.897Z,20.70
2024-01-14T07:52:46.028Z,21.43
2024-01-14T07:55:13.094Z,19.70
2024-01-14T07:57:40.107Z,19.67
2024-01-14T08:00:08.076Z,18.57
2024-01-14T08:02:38.803Z,18.97
2024-01-14T08:05:06.214Z,18.70
2024-01-14T08:07:33.197Z,18.50
2024-01-14T08:10:00.570Z,19.03
2024-01-14T08:12:27.622Z,18.17
2024-01-14T08:14:54.705Z,19.33
2024-01-14T08:17:21.689Z,17.77
2024-01-14T08:19:49.100Z,17.97
2024-01-14T08:22:19.370Z,16.80
2024-01-14T08:24:46.731Z,16.70
2024-01-14T08:27:13.709Z,17.57
2024-01-14T08:29:41.667Z,19.27
2024-01-14T08:32:08.826Z,19.23
2024-01-14T08:34:36.075Z,18.80
2024-01-14T08:37:03.039Z,18.13
2024-01-14T08:39:30.047Z,18.13
2024-01-14T08:41:57.771Z,19.50
2024-01-14T08:44:28.684Z,19.73
2024-01-14T08:46:57.189Z,20.30
2024-01-14T08:49:30.853Z,21.90
2024-01-14T08:51:58.152Z,20.53
2024-01-14T08:54:25.302Z,19.33
2024-01-14T08:56:52.280Z,21.47
2024-01-14T08:59:19.912Z,20.73
2024-01-14T09:01:46.887Z,19.23
2024-01-14T09:04:13.952Z,19.37
2024-01-14T09:06:41.362Z,20.43
2024-01-14T09:09:10.632Z,20.13
2024-01-14T09:11:37.620Z,20.20
2024-01-14T09:14:05.006Z,20.60
2024-01-14T09:16:32.410Z,20.67
2024-01-14T09:18:59.702Z,21.03
2024-01-14T09:21:26.767Z,19.40
2024-01-14T09:23:53.762Z,22.47
2024-01-14T09:26:20.732Z,21.83
2024-01-14T09:28:47.958Z,21.20
2024-01-14T09:31:15.115Z,22.83
2024-01-14T09:33:44.815Z,21.67
2024-01-14T09:36:12.368Z,21.00
2024-01-14T09:38:39.444Z,21.63
2024-01-14T09:42:08.377Z,20.87
2024-01-14T09:44:35.671Z,22.03
2024-01-14T09:47:04.944Z,21.73
2024-01-14T09:49:32.182Z,22.10
2024-01-14T09:52:01.744Z,21.63
2024-01-14T09:54:29.896Z,22.13
2024-01-14T09:57:02.716Z,22.47
2024-01-14T09:59:37.979Z,23.00
2024-01-14T10:02:07.313Z,23.10
2024-01-14T10:04:34.462Z,22.80
2024-01-14T10:07:01.754Z,22.20
2024-01-14T10:09:28.973Z,23.17
2024-01-14T10:11:57.772Z,25.03
2024-01-14T10:14:28.556Z,25.43
2024-01-14T10:16:59.085Z,23.80
2024-01-14T10:19:26.235Z,23.70
2024-01-14T10:22:14.221Z,22.90
2024-01-14T10:24:53.925Z,21.63
2024-01-14T10:27:35.100Z,21.80
2024-01-14T10:30:12.816Z,23.00
2024-01-14T10:33:15.969Z,22.40
2024-01-14T10:35:32.436Z,22.07
2024-01-14T10:38:00.234Z,21.00
2024-01-14T10:40:27.868Z,21.87
2024-01-14T10:42:55.429Z,22.33
2024-01-14T10:45:23.044Z,21.50
2024-01-14T10:47:57.423Z,21.33
2024-01-14T10:50:34.414Z,21.70
2024-01-14T10:53:22.462Z,21.10
2024-01-14T10:55:56.544Z,21.33
2024-01-14T10:58:31.147Z,21.43
2024-01-14T11:01:01.258Z,20.33
2024-01-14T11:03:30.558Z,22.90
2024-01-14T11:05:59.207Z,22.27
2024-01-14T11:08:27.665Z,20.73
2024-01-14T11:10:56.190Z,21.30
2024-01-14T11:13:48.884Z,20.57
2024-01-14T11:16:29.682Z,21.03
2024-01-14T11:19:02.506Z,20.90
2024-01-14T11:22:07.411Z,19.43
2024-01-14T11:24:41.828Z,18.50
2024-01-14T11:27:16.185Z,19.80
2024-01-14T11:29:49.648Z,19.63
2024-01-14T11:32:22.181Z,19.20
2024-01-14T11:34:54.145Z,20.67
2024-01-14T11:37:30.533Z,22.30
2024-01-14T11:40:41.620Z,19.77
2024-01-14T11:43:09.414Z,19.47
2024-01-14T11:45:39.398Z,19.70
2024-01-14T11:48:10.306Z,21.53
2024-01-14T11:50:39.017Z,18.93
2024-01-14T11:53:10.608Z,20.43
2024-01-14T11:55:37.849Z,21.30
2024-01-14T11:58:15.359Z,21.17
2024-01-14T12:00:44.845Z,24.27
2024-01-14T12:03:18.058Z,22.93
2024-01-14T12:05:45.759Z,21.37
2024-01-14T12:08:14.810Z,20.37
2024-01-14T12:10:42.783Z,21.83
2024-01-14T12:13:10.840Z,21.40
2024-01-14T12:15:39.647Z,20.60
2024-01-14T12:18:08.680Z,20.87
2024-01-14T12:20:36.156Z,20.70
2024-01-14T12:23:07.561Z,19.83
2024-01-14T12:25:36.642Z,21.00
2024-01-14T12:28:04.424Z,21.20
2024-01-14T12:30:36.335Z,19.80
2024-01-14T12:33:12.086Z,18.33
2024-01-14T12:35:40.416Z,19.13
2024-01-14T12:38:09.968Z,19.63
2024-01-14T12:40:38.689Z,19.60
2024-01-14T12:43:10.760Z,19.63
2024-01-14T12:45:51.010Z,19.07
2024-01-14T12:48:23.451Z,19.33
2024-01-14T12:50:59.820Z,18.37
2024-01-14T12:53:30.566Z,18.57
2024-01-14T12:56:16.125Z,18.90
2024-01-14T12:58:43.282Z,19.47
2024-01-14T13:01:10.846Z,18.93
2024-01-14T13:03:40.747Z,19.80
2024-01-14T13:06:08.221Z,19.80
2024-01-14T13:08:35.994Z,19.43
2024-01-14T13:11:03.490Z,18.13
2024-01-14T13:13:30.606Z,19.13
2024-01-14T13:15:57.976Z,18.50
2024-01-14T13:18:25.620Z,18.53
2024-01-14T13:20:52.686Z,17.70
2024-01-14T13:23:19.694Z,16.33
2024-01-14T13:25:46.706Z,17.60
2024-01-14T13:28:14.764Z,17.43
2024-01-14T13:30:43.615Z,16.93
2024-01-14T13:33:11.018Z,16.20
2024-01-14T13:35:38.152Z,16.77
2024-01-14T13:38:05.169Z,17.20
2024-01-14T13:40:33.114Z,17.27
2024-01-14T13:43:00.650Z,16.00
2024-01-14T13:45:32.041Z,17.80
2024-01-14T13:47:59.927Z,17.53
2024-01-14T13:50:26.947Z,18.50
2024-01-14T13:52:54.200Z,17.00
2024-01-14T13:55:21.185Z,17.67
2024-01-14T13:57:50.570Z,18.23
2024-01-14T14:00:18.629Z,17.00
2024-01-14T14:02:45.846Z,16.63
2024-01-14T14:05:13.900Z,16.33
2024-01-14T14:07:41.243Z,18.23
2024-01-14T14:10:10.557Z,17.47
2024-01-14T14:12:38.801Z,17.90
2024-01-14T14:15:06.856Z,17.53
2024-01-14T14:17:34.061Z,16.57
2024-01-14T14:20:01.849Z,17.30
2024-01-14T14:22:28.922Z,18.07
2024-01-14T14:24:56.215Z,17.07
2024-01-14T14:27:23.374Z,18.03
2024-01-14T14:29:50.338Z,17.73
2024-01-14T14:32:17.473Z,16.90
2024-01-14T14:34:45.219Z,16.87
2024-01-14T14:37:12.347Z,17.13
2024-01-14T14:39:39.357Z,17.17
2024-01-14T14:42:08.262Z,17.47
2024-01-14T14:44:35.828Z,16.60
2024-01-14T14:47:03.259Z,16.30
2024-01-14T14:49:30.248Z,15.47
2024-01-14T14:51:57.323Z,17.23
2024-01-14T14:54:24.515Z,17.47
2024-01-14T14:56:51.637Z,17.00
2024-01-14T14:59:20.864Z,18.03
2024-01-14T15:01:49.293Z,18.33
2024-01-14T15:04:17.171Z,18.60
2024-01-14T15:06:46.496Z,17.87
2024-01-14T15:09:15.992Z,17.23
2024-01-14T15:11:43.394Z,17.03
2024-01-14T15:14:11.530Z,18.47
2024-01-14T15:16:40.861Z,17.10
2024-01-14T15:19:08.037Z,17.83
2024-01-14T15:21:35.323Z,17.07
2024-01-14T15:24:02.808Z,16.20
2024-01-14T15:26:30.068Z,18.43
2024-01-14T15:28:57.958Z,17.30
2024-01-14T15:31:25.117Z,17.73
2024-01-14T15:33:52.468Z,18.37
2024-01-14T15:36:21.038Z,17.97
2024-01-14T15:38:48.744Z,17.20
2024-01-14T15:41:16.539Z,18.60
2024-01-14T15:43:43.908Z,17.83
2024-01-14T15:46:11.455Z,18.30
2024-01-14T15:48:41.269Z,18.93
2024-01-14T15:51:12.724Z,18.30
2024-01-14T15:53:43.223Z,18.77
2024-01-14T15:56:10.887Z,16.97
2024-01-14T15:58:39.935Z,17.13
2024-01-14T16:01:13.492Z,19.53
2024-01-14T16:03:45.022Z,19.40
2024-01-14T16:06:15.678Z,18.13
2024-01-14T16:08:46.206Z,18.13
2024-01-14T16:11:14.379Z,17.80
2024-01-14T16:13:41.489Z,17.57
2024-01-14T16:16:08.681Z,19.17
2024-01-14T16:18:37.072Z,17.53
2024-01-14T16:21:07.052Z,18.03
2024-01-14T16:23:40.103Z,16.70
2024-01-14T16:26:09.148Z,19.40
2024-01-14T16:28:36.662Z,19.50
2024-01-14T16:31:11.437Z,18.83
2024-01-14T16:33:48.235Z,18.73
2024-01-14T16:36:17.662Z,18.87
2024-01-14T16:38:45.983Z,19.00
2024-01-14T16:41:15.724Z,19.00
2024-01-14T16:43:45.050Z,19.60
2024-01-14T16:46:12.565Z,18.37
2024-01-14T16:48:39.602Z,19.90
2024-01-14T16:51:11.903Z,18.90
2024-01-14T16:53:41.482Z,18.43
2024-01-14T16:56:13.825Z,18.63
2024-01-14T16:58:43.154Z,18.23
2024-01-14T17:01:15.937Z,19.40
2024-01-14T17:03:50.836Z,19.63
2024-01-14T17:06:19.707Z,19.83
2024-01-14T17:08:48.647Z,18.83
2024-01-14T17:11:20.695Z,17.80
2024-01-14T17:13:48.480Z,18.33
2024-01-14T17:16:27.217Z,18.17
2024-01-14T17:18:57.395Z,20.13
2024-01-14T17:21:26.488Z,19.67
2024-01-14T17:23:53.753Z,18.20
2024-01-14T17:26:21.627Z,18.57
2024-01-14T17:28:48.978Z,18.07
2024-01-14T17:31:17.784Z,17.47
2024-01-14T17:33:52.116Z,18.20
2024-01-14T17:36:22.332Z,19.17
2024-01-14T17:38:50.411Z,17.60
2024-01-14T17:41:19.334Z,17.90
2024-01-14T17:43:46.758Z,19.53
2024-01-14T17:46:14.220Z,17.93
2024-01-14T17:48:44.301Z,18.20
2024-01-14T17:51:12.948Z,18.63
2024-01-14T17:53:42.628Z,19.13
2024-01-14T17:56:10.216Z,19.47
2024-01-14T17:58:37.468Z,19.10
2024-01-14T18:01:07.262Z,17.77
2024-01-14T18:03:34.768Z,21.33
2024-01-14T18:06:03.272Z,21.30
2024-01-14T18:08:30.560Z,19.37
2024-01-14T18:10:57.605Z,19.97
2024-01-14T18:13:25.826Z,18.67
2024-01-14T18:15:53.232Z,20.47
2024-01-14T18:18:20.790Z,19.33
2024-01-14T18:20:48.517Z,19.70
2024-01-14T18:23:16.082Z,19.80
2024-01-14T18:25:44.827Z,20.80
2024-01-14T18:28:13.737Z,20.03
2024-01-14T18:30:41.379Z,22.60
2024-01-14T18:33:11.847Z,21.20
2024-01-14T18:35:46.482Z,21.07
2024-01-14T18:38:16.138Z,21.10
2024-01-14T18:40:43.831Z,21.37
2024-01-14T18:43:12.666Z,21.27
2024-01-14T18:45:40.184Z,19.17
2024-01-14T18:48:08.546Z,20.97
2024-01-14T18:50:36.507Z,20.67
2024-01-14T18:53:05.986Z,21.83
2024-01-14T18:55:36.188Z,21.37
2024-01-14T18:58:03.583Z,22.07
2024-01-14T19:00:31.172Z,21.43
2024-01-14T19:02:58.366Z,20.10
2024-01-14T19:05:26.410Z,20.27
2024-01-14T19:07:53.651Z,20.43
2024-01-14T19:10:20.632Z,20.77
2024-01-14T19:12:47.767Z,21.00
2024-01-14T19:15:14.816Z,21.30
2024-01-14T19:17:41.909Z,22.30
2024-01-14T19:20:09.741Z,22.57
2024-01-14T19:22:37.026Z,24.07
2024-01-14T19:25:07.544Z,23.53
2024-01-14T19:27:36.567Z,23.33
2024-01-14T19:30:04.148Z,22.80
2024-01-14T19:32:31.393Z,22.30
2024-01-14T19:34:58.532Z,21.83
2024-01-14T19:37:28.020Z,21.90
2024-01-14T19:39:55.109Z,21.47
2024-01-14T19:42:22.857Z,22.43
2024-01-14T19:44:50.095Z,24.97
2024-01-14T19:47:17.694Z,22.00
2024-01-14T19:49:46.915Z,23.80
2024-01-14T19:52:17.784Z,22.10
2024-01-14T19:54:44.818Z,21.60
2024-01-14T19:57:11.882Z,24.00
2024-01-14T19:59:38.973Z,23.07
2024-01-14T20:02:06.312Z,23.80
2024-01-14T20:04:33.252Z,21.17
2024-01-14T20:07:00.306Z,22.87
2024-01-14T20:09:27.541Z,21.83
2024-01-14T20:11:57.725Z,20.60
2024-01-14T20:14:24.785Z,22.40
2024-01-14T20:16:52.664Z,22.70
2024-01-14T20:19:20.776Z,22.23
2024-01-14T20:21:49.281Z,23.10
2024-01-14T20:24:16.433Z,23.77
2024-01-14T20:26:43.984Z,23.37
2024-01-14T20:29:11.047Z,23.17
2024-01-14T20:31:38.591Z,22.20
2024-01-14T20:34:06.451Z,21.97
2024-01-14T20:36:33.847Z,23.17
2024-01-14T20:39:01.293Z,23.30
2024-01-14T20:41:28.388Z,23.60
2024-01-14T20:43:55.330Z,24.03
2024-01-14T20:46:22.218Z,24.50
2024-01-14T20:48:49.445Z,24.27
2024-01-14T20:51:17.252Z,23.93
2024-01-14T20:53:44.764Z,23.20
2024-01-14T20:56:12.396Z,23.43
2024-01-14T20:58:39.462Z,23.13
2024-01-14T21:01:06.827Z,23.57
2024-01-14T21:03:34.677Z,23.77
2024-01-14T21:06:02.024Z,23.67
2024-01-14T21:08:29.250Z,23.00
2024-01-14T21:10:56.343Z,22.77
2024-01-14T21:13:25.679Z,25.10
2024-01-14T21:15:53.123Z,22.40
2024-01-14T21:18:24.513Z,22.77
2024-01-14T21:20:52.869Z,21.77
2024-01-14T21:23:20.328Z,21.53
2024-01-14T21:25:47.972Z,21.57
2024-01-14T21:28:15.075Z,20.93
2024-01-14T21:30:42.164Z,21.27
2024-01-14T21:33:09.440Z,22.77
2024-01-14T21:35:36.607Z,21.80
2024-01-14T21:38:04.461Z,21.17
2024-01-14T21:40:31.574Z,21.67
2024-01-14T21:42:58.619Z,20.10
2024-01-14T21:45:25.758Z,19.93
2024-01-14T21:47:52.784Z,19.67
2024-01-14T21:50:19.865Z,20.43
2024-01-14T21:52:46.727Z,19.13
2024-01-14T21:55:15.093Z,19.57
2024-01-14T21:57:42.691Z,19.90
2024-01-14T22:00:10.911Z,18.47
2024-01-14T22:02:38.483Z,16.90
2024-01-14T22:05:06.639Z,17.53
2024-01-14T22:07:34.002Z,16.53
2024-01-14T22:10:01.105Z,16.80
2024-01-14T22:12:28.523Z,15.03
2024-01-14T22:14:56.173Z,15.47
2024-01-14T22:17:23.211Z,16.17
2024-01-14T22:19:50.968Z,15.03
2024-01-14T22:22:18.108Z,14.77
2024-01-14T22:24:45.985Z,15.50
2024-01-14T22:27:13.330Z,14.57
2024-01-14T22:29:40.311Z,13.97
2024-01-14T22:32:07.543Z,14.97
2024-01-14T22:34:35.212Z,13.97
2024-01-14T22:37:02.346Z,14.90
2024-01-14T22:39:30.477Z,15.43
2024-01-14T22:41:57.908Z,14.20
2024-01-14T22:44:25.446Z,14.60
2024-01-14T22:46:52.561Z,16.53
2024-01-14T22:49:19.649Z,16.67
2024-01-14T22:51:47.258Z,16.63
2024-01-14T22:54:15.035Z,16.23
2024-01-14T22:56:42.336Z,16.27
2024-01-14T22:59:09.718Z,16.17
2024-01-14T23:01:37.158Z,17.63
2024-01-14T23:04:08.949Z,17.43
2024-01-14T23:06:36.485Z,17.20
2024-01-14T23:09:03.908Z,19.00
2024-01-14T23:11:31.334Z,16.60
2024-01-14T23:13:58.262Z,17.67
2024-01-14T23:16:25.171Z,17.27
2024-01-14T23:18:52.233Z,17.47
2024-01-14T23:21:19.430Z,19.00
2024-01-14T23:23:46.589Z,17.00
2024-01-14T23:26:13.606Z,17.83
2024-01-14T23:28:43.608Z,17.53
2024-01-14T23:31:10.815Z,18.83
2024-01-14T23:33:39.556Z,18.00
2024-01-14T23:36:06.920Z,16.00
2024-01-14T23:38:33.925Z,16.87
2024-01-14T23:41:00.930Z,15.67
2024-01-14T23:43:28.212Z,15.60
2024-01-14T23:45:55.587Z,14.30
2024-01-14T23:48:22.747Z,15.57
2024-01-14T23:50:49.800Z,15.87
2024-01-14T23:53:16.883Z,17.07
2024-01-14T23:55:43.840Z,15.70
2024-01-14T23:58:13.638Z,17.30
